Time;durP1;ratioP1;P1;durP2;ratioP2;P2;SDS_P1;SDS_P2;PMS_P1;PMS_P2;Temp;Humidity;BMP_temperature;BMP_pressure;BME280_temperature;BME280_humidity;BME280_pressure;Samples;Min_cycle;Max_cycle;Signal;HPM_P1;HPM_P2
2022/06/22 00:01:05;;;;;;;;;;;;;;;;;;5012559;28;19925;-64
2022/06/22 00:03:32;;;;;;;;;;;;;;;;;;5013366;28;19983;-64
2022/06/22 00:05:59;;;;;;;;;;;;;;;;;;5012988;28;20362;-64
2022/06/22 00:08:36;;;;;;;;;;;;;;;;;;5012937;28;19932;-64
2022/06/22 00:11:04;;;;;;;;;;;;;;;;;;5012652;28;20028;-64
2022/06/22 00:13:32;;;;;;;;;;;;;;;;;;5012883;28;20323;-64
2022/06/22 00:16:00;;;;;;;;;;;;;;;;;;5012740;28;19925;-64
2022/06/22 00:18:29;;;;;;;;;;;;;;;;;;5012525;28;20386;-64
2022/06/22 00:20:57;;;;;;;;;;;;;;;;;;5012587;28;19925;-64
2022/06/22 00:23:26;;;;;;;;;;;;;;;;;;5032844;22;19937;-74
2022/06/22 00:25:58;;;;;;;;;;;;;;;;;;5013288;28;19948;-74
2022/06/22 00:28:26;;;;;;;;;;;;;;;;;;5013821;28;19932;-74
2022/06/22 00:30:59;;;;;;;;;;;;;;;;;;5012406;28;19926;-74
2022/06/22 00:33:25;;;;;;;;;;;;;;;;;;5012577;28;19984;-75
2022/06/22 00:35:56;;;;;;;;;;;;;;;;;;5012590;28;19980;-75
2022/06/22 00:38:26;;;;;;;;;;;;;;;;;;5012410;28;20004;-75
2022/06/22 00:40:55;;;;;;;;;;;;;;;;;;5011892;28;19948;-75
2022/06/22 00:43:25;;;;;;;;;;;;;;;;;;5012136;28;19925;-75
2022/06/22 00:45:52;;;;;;;;;;;;;;;;;;5012267;28;19930;-75
2022/06/22 00:48:21;;;;;;;;;;;;;;;;;;5012350;28;19925;-75
2022/06/22 00:50:49;;;;;;;;;;;;;;;;;;5012380;28;19925;-75
2022/06/22 00:53:18;;;;;;;;;;;;;;;;;;5012154;28;20020;-75
2022/06/22 00:55:51;;;;;;;;;;;;;;;;;;5012255;28;19925;-75
2022/06/22 00:58:21;;;;;;;;;;;;;;;;;;5012163;28;20315;-75
2022/06/22 01:00:54;;;;;;;;;;;;;;;;;;5011744;28;19980;-75
2022/06/22 01:03:21;;;;;;;;;;;;;;;;;;5012123;28;19925;-75
2022/06/22 01:05:52;;;;;;;;;;;;;;;;;;5012194;28;19925;-75
2022/06/22 01:08:22;;;;;;;;;;;;;;;;;;5012195;28;20303;-75
2022/06/22 01:10:53;;;;;;;;;;;;;;;;;;5011926;28;19937;-75
2022/06/22 01:13:25;;;;;;;;;;;;;;;;;;5012179;28;19932;-76
2022/06/22 01:15:53;;;;;;;;;;;;;;;;;;5012070;28;19933;-75
2022/06/22 01:18:23;;;;;;;;;;;;;;;;;;5012238;28;19998;-75
2022/06/22 01:20:57;;;;;;;;;;;;;;;;;;5011881;28;19926;-75
2022/06/22 01:23:32;;;;;;;;;;;;;;;;;;5012047;28;19936;-75
2022/06/22 01:26:04;;;;;;;;;;;;;;;;;;5012218;28;19925;-75
2022/06/22 01:28:32;;;;;;;;;;;;;;;;;;5012053;28;19934;-75
2022/06/22 01:31:03;;;;;;;;;;;;;;;;;;5012012;28;20016;-76
2022/06/22 01:33:33;;;;;;;;;;;;;;;;;;5011788;28;20007;-76
2022/06/22 01:36:01;;;;;;;;;;;;;;;;;;5012210;28;19926;-75
2022/06/22 01:38:29;;;;;;;;;;;;;;;;;;5015484;28;19932;-76
2022/06/22 01:41:00;;;;;;;;;;;;;;;;;;5015180;28;19925;-75
2022/06/22 01:43:29;;;;;;;;;;;;;;;;;;5015389;28;19930;-75
2022/06/22 01:46:03;;;;;;;;;;;;;;;;;;5015708;28;19988;-75
2022/06/22 01:48:32;;;;;;;;;;;;;;;;;;5015279;28;19925;-75
2022/06/22 01:51:00;;;;;;;;;;;;;;;;;;5014963;28;20016;-75
2022/06/22 01:53:29;;;;;;;;;;;;;;;;;;5014991;28;19935;-75
2022/06/22 01:55:59;;;;;;;;;;;;;;;;;;5015175;28;19925;-75
2022/06/22 01:58:33;;;;;;;;;;;;;;;;;;5015443;28;20392;-75
2022/06/22 02:01:02;;;;;;;;;;;;;;;;;;5034469;28;20020;-75
2022/06/22 02:03:32;;;;;;;;;;;;;;;;;;5034693;28;19964;-75
2022/06/22 02:06:01;;;;;;;;;;;;;;;;;;5034973;28;19925;-75
2022/06/22 02:08:28;;;;;;;;;;;;;;;;;;5034700;28;19983;-76
2022/06/22 02:10:59;;;;;;;;;;;;;;;;;;5034210;28;19932;-75
2022/06/22 02:13:29;;;;;;;;;;;;;;;;;;5034339;28;20277;-76
2022/06/22 02:15:59;;;;;;;;;;;;;;;;;;5034610;28;20347;-75
2022/06/22 02:18:30;;;;;;;;;;;;;;;;;;5034538;28;19932;-75
2022/06/22 02:20:59;;;;;;;;;;;;;;;;;;5034074;28;20020;-76
2022/06/22 02:23:28;;;;;;;;;;;;;;;;;;5034322;28;20299;-75
2022/06/22 02:26:02;;;;;;;;;;;;;;;;;;5034807;28;19925;-75
2022/06/22 02:28:29;;;;;;;;;;;;;;;;;;5034138;28;19932;-75
2022/06/22 02:30:56;;;;;;;;;;;;;;;;;;5033958;28;20635;-75
2022/06/22 02:33:24;;;;;;;;;;;;;;;;;;5033963;28;19925;-75
2022/06/22 02:35:52;;;;;;;;;;;;;;;;;;5034174;28;20016;-75
2022/06/22 02:38:19;;;;;;;;;;;;;;;;;;5033901;28;19929;-75
2022/06/22 02:46:18;;;;;;;;;;;;;;;;;;5033959;28;20319;-75
2022/06/22 02:48:46;;;;;;;;;;;;;;;;;;5033703;28;19931;-75
2022/06/22 02:51:16;;;;;;;;;;;;;;;;;;5033604;28;19929;-75
2022/06/22 02:53:43;;;;;;;;;;;;;;;;;;5033605;28;20023;-76
2022/06/22 02:56:14;;;;;;;;;;;;;;;;;;5033630;28;20303;-76
2022/06/22 02:58:40;;;;;;;;;;;;;;;;;;5033529;28;20506;-75
2022/06/22 03:01:12;;;;;;;;;;;;;;;;;;5033069;28;20383;-76
2022/06/22 03:03:39;;;;;;;;;;;;;;;;;;5033617;28;19925;-75
2022/06/22 03:06:06;;;;;;;;;;;;;;;;;;5033376;28;19932;-75
2022/06/22 03:08:34;;;;;;;;;;;;;;;;;;5033664;28;19928;-75
2022/06/22 03:11:02;;;;;;;;;;;;;;;;;;5033104;28;19925;-75
2022/06/22 03:13:31;;;;;;;;;;;;;;;;;;5033125;28;19925;-75
2022/06/22 03:15:57;;;;;;;;;;;;;;;;;;5033243;28;19932;-76
2022/06/22 03:18:26;;;;;;;;;;;;;;;;;;5033404;28;19936;-75
2022/06/22 03:20:55;;;;;;;;;;;;;;;;;;5033020;28;20012;-76
2022/06/22 03:23:24;;;;;;;;;;;;;;;;;;5033056;28;19933;-75
2022/06/22 03:25:53;;;;;;;;;;;;;;;;;;5033347;28;20016;-75
2022/06/22 03:28:24;;;;;;;;;;;;;;;;;;5032831;28;19925;-76
2022/06/22 03:30:53;;;;;;;;;;;;;;;;;;5033058;28;19925;-76
2022/06/22 03:33:25;;;;;;;;;;;;;;;;;;5033097;28;19925;-75
2022/06/22 03:35:55;;;;;;;;;;;;;;;;;;5033349;28;19979;-76
2022/06/22 03:38:23;;;;;;;;;;;;;;;;;;5032918;28;19932;-76
2022/06/22 03:40:51;;;;;;;;;;;;;;;;;;5032328;28;20376;-76
2022/06/22 03:43:21;;;;;;;;;;;;;;;;;;5032602;28;20380;-75
2022/06/22 03:45:50;;;;;;;;;;;;;;;;;;5032919;28;20011;-75
2022/06/22 03:48:23;;;;;;;;;;;;;;;;;;5032930;28;19929;-76
2022/06/22 03:50:52;;;;;;;;;;;;;;;;;;5032358;28;20024;-75
2022/06/22 03:53:20;;;;;;;;;;;;;;;;;;5032521;28;19976;-76
2022/06/22 03:55:49;;;;;;;;;;;;;;;;;;5032847;28;19940;-75
2022/06/22 03:58:16;;;;;;;;;;;;;;;;;;5032545;28;20414;-75
2022/06/22 04:00:45;;;;;;;;;;;;;;;;;;5031455;28;19925;-75
2022/06/22 04:03:12;;;;;;;;;;;;;;;;;;5032609;28;19925;-75
2022/06/22 04:05:41;;;;;;;;;;;;;;;;;;5032440;28;19959;-76
2022/06/22 04:08:13;;;;;;;;;;;;;;;;;;5032493;28;19925;-75
2022/06/22 04:10:42;;;;;;;;;;;;;;;;;;5032168;28;20019;-76
2022/06/22 04:13:12;;;;;;;;;;;;;;;;;;5032437;28;20376;-76
2022/06/22 04:15:41;;;;;;;;;;;;;;;;;;5032440;28;20289;-75
2022/06/22 04:18:12;;;;;;;;;;;;;;;;;;5032869;28;20020;-76
2022/06/22 04:20:54;;;;;;;;;;;;;;;;;;5032529;28;20000;-75
2022/06/22 04:23:26;;;;;;;;;;;;;;;;;;5032624;28;19925;-76
2022/06/22 04:25:54;;;;;;;;;;;;;;;;;;5032417;28;19929;-75
2022/06/22 04:28:21;;;;;;;;;;;;;;;;;;5032440;28;20410;-75
2022/06/22 04:30:50;;;;;;;;;;;;;;;;;;5031611;28;19987;-76
2022/06/22 04:33:20;;;;;;;;;;;;;;;;;;5032295;28;19932;-76
2022/06/22 04:35:49;;;;;;;;;;;;;;;;;;5032354;28;19932;-75
2022/06/22 04:38:20;;;;;;;;;;;;;;;;;;5032077;28;19925;-75
2022/06/22 04:40:50;;;;;;;;;;;;;;;;;;5031825;28;20590;-75
2022/06/22 04:43:16;;;;;;;;;;;;;;;;;;5033440;28;19965;-75
2022/06/22 04:45:43;;;;;;;;;;;;;;;;;;5032815;28;19975;-76
2022/06/22 04:48:14;;;;;;;;;;;;;;;;;;5032610;28;20016;-75
2022/06/22 04:50:43;;;;;;;;;;;;;;;;;;5033023;28;20023;-75
2022/06/22 04:53:14;;;;;;;;;;;;;;;;;;5033325;28;20020;-76
2022/06/22 04:55:41;;;;;;;;;;;;;;;;;;5035154;28;19929;-75
2022/06/22 04:58:11;;;;;;;;;;;;;;;;;;5032120;28;20372;-75
2022/06/22 05:00:38;;;;;;;;;;;;;;;;;;5031596;28;20020;-75
2022/06/22 05:03:06;;;;;;;;;;;;;;;;;;5031845;28;20100;-76
2022/06/22 05:05:34;;;;;;;;;;;;;;;;;;5031969;28;19971;-75
2022/06/22 05:08:05;;;;;;;;;;;;;;;;;;5031828;28;20399;-76
2022/06/22 05:10:36;;;;;;;;;;;;;;;;;;5032425;28;19925;-76
2022/06/22 05:13:04;;;;;;;;;;;;;;;;;;5035849;28;19936;-76
2022/06/22 05:15:33;;;;;;;;;;;;;;;;;;5035621;28;19925;-75
2022/06/22 05:18:01;;;;;;;;;;;;;;;;;;5035730;28;20012;-75
2022/06/22 05:20:30;;;;;;;;;;;;;;;;;;5035434;28;19925;-75
2022/06/22 05:22:58;;;;;;;;;;;;;;;;;;5035227;28;20011;-75
2022/06/22 05:25:26;;;;;;;;;;;;;;;;;;5035482;28;20011;-76
2022/06/22 05:27:58;;;;;;;;;;;;;;;;;;5035468;28;19985;-75
2022/06/22 05:30:24;;;;;;;;;;;;;;;;;;5035021;28;20015;-76
2022/06/22 05:32:52;;;;;;;;;;;;;;;;;;5035242;28;20016;-75
2022/06/22 05:35:22;;;;;;;;;;;;;;;;;;5035550;28;20020;-75
2022/06/22 05:37:50;;;;;;;;;;;;;;;;;;5036286;28;20407;-76
2022/06/22 05:40:17;;;;;;;;;;;;;;;;;;5036105;28;20012;-75
2022/06/22 05:42:45;;;;;;;;;;;;;;;;;;5038462;28;20032;-75
2022/06/22 05:45:14;;;;;;;;;;;;;;;;;;5037766;28;19971;-76
2022/06/22 05:47:40;;;;;;;;;;;;;;;;;;5038094;28;20020;-76
2022/06/22 05:50:12;;;;;;;;;;;;;;;;;;5034935;28;19925;-75
2022/06/22 05:52:42;;;;;;;;;;;;;;;;;;5035104;28;19931;-76
2022/06/22 05:55:13;;;;;;;;;;;;;;;;;;5034973;28;20012;-76
2022/06/22 05:57:45;;;;;;;;;;;;;;;;;;5034832;28;19931;-76
2022/06/22 06:00:15;;;;;;;;;;;;;;;;;;5034138;28;20391;-76
2022/06/22 06:02:45;;;;;;;;;;;;;;;;;;5034678;28;19925;-75
2022/06/22 06:05:17;;;;;;;;;;;;;;;;;;5034756;28;20392;-76
2022/06/22 06:07:46;;;;;;;;;;;;;;;;;;5034702;28;19932;-76
2022/06/22 06:10:17;;;;;;;;;;;;;;;;;;5033965;28;19933;-75
2022/06/22 06:12:53;;;;;;;;;;;;;;;;;;5034394;28;19929;-75
2022/06/22 06:15:21;;;;;;;;;;;;;;;;;;5034261;28;20303;-75
2022/06/22 06:17:50;;;;;;;;;;;;;;;;;;5034433;28;19932;-75
2022/06/22 06:20:21;;;;;;;;;;;;;;;;;;5033997;28;19965;-75
2022/06/22 06:22:49;;;;;;;;;;;;;;;;;;5033415;28;19926;-75
2022/06/22 06:28:06;;;;;;;;;;;;;;;;;;5060405;28;20027;-76
2022/06/22 06:30:37;;;;;;;;;;;;;;;;;;5062495;28;19925;-77
2022/06/22 06:33:05;;;;;;;;;;;;;;;;;;5060759;28;19948;-77
2022/06/22 06:35:35;;;;;;;;;;;;;;;;;;5065206;28;19972;-77
2022/06/22 06:38:05;;;;;;;;;;;;;;;;;;5061838;28;19988;-76
2022/06/22 06:40:36;;;;;;;;;;;;;;;;;;5042278;28;20372;-76
2022/06/22 06:43:07;;;;;;;;;;;;;;;;;;5045788;28;19926;-76
2022/06/22 06:45:35;;;;;;;;;;;;;;;;;;5042322;28;19988;-76
2022/06/22 06:48:03;;;;;;;;;;;;;;;;;;5038353;28;20015;-77
2022/06/22 06:50:32;;;;;;;;;;;;;;;;;;5036592;28;20307;-76
2022/06/22 06:53:02;;;;;;;;;;;;;;;;;;5037300;28;19968;-77
2022/06/22 06:55:33;;;;;;;;;;;;;;;;;;5037401;28;19925;-77
2022/06/22 06:58:02;;;;;;;;;;;;;;;;;;5037961;28;19937;-76
2022/06/22 07:00:30;;;;;;;;;;;;;;;;;;5037727;28;19979;-76
2022/06/22 07:02:58;;;;;;;;;;;;;;;;;;5038064;28;19976;-76
2022/06/22 07:05:26;;;;;;;;;;;;;;;;;;5037615;28;19972;-76
2022/06/22 07:07:54;;;;;;;;;;;;;;;;;;5038327;28;19929;-76
2022/06/22 07:10:22;;;;;;;;;;;;;;;;;;5037209;28;19925;-76
2022/06/22 07:12:52;;;;;;;;;;;;;;;;;;5038115;28;19979;-78
2022/06/22 07:15:21;;;;;;;;;;;;;;;;;;5035514;28;19932;-77
2022/06/22 07:17:49;;;;;;;;;;;;;;;;;;5035096;28;20012;-76
2022/06/22 07:20:18;;;;;;;;;;;;;;;;;;5034322;28;19976;-79
2022/06/22 07:22:46;;;;;;;;;;;;;;;;;;5034359;28;20402;-77
2022/06/22 07:25:15;;;;;;;;;;;;;;;;;;5033976;28;19925;-76
2022/06/22 07:27:47;;;;;;;;;;;;;;;;;;5035353;28;19925;-78
2022/06/22 07:30:15;;;;;;;;;;;;;;;;;;5032669;28;19932;-76
2022/06/22 07:32:44;;;;;;;;;;;;;;;;;;5034001;28;19925;-76
2022/06/22 07:35:15;;;;;;;;;;;;;;;;;;5031553;28;19925;-76
2022/06/22 07:37:46;;;;;;;;;;;;;;;;;;5032753;28;19933;-76
2022/06/22 07:40:14;;;;;;;;;;;;;;;;;;5032755;28;19932;-76
2022/06/22 07:42:41;;;;;;;;;;;;;;;;;;5032388;28;19925;-76
2022/06/22 07:45:13;;;;;;;;;;;;;;;;;;5032529;28;19925;-76
2022/06/22 07:47:41;;;;;;;;;;;;;;;;;;5033177;28;19937;-76
2022/06/22 07:50:13;;;;;;;;;;;;;;;;;;5032672;28;19979;-75
2022/06/22 07:52:47;;;;;;;;;;;;;;;;;;5034233;28;19969;-76
2022/06/22 07:55:22;;;;;;;;;;;;;;;;;;5037958;28;20628;-75
2022/06/22 07:58:04;;;;;;;;;;;;;;;;;;5035232;28;19988;-77
2022/06/22 08:00:31;;;;;;;;;;;;;;;;;;5035211;28;20450;-75
2022/06/22 08:03:01;;;;;;;;;;;;;;;;;;5033779;28;19924;-76
2022/06/22 08:05:29;;;;;;;;;;;;;;;;;;5038655;28;19933;-76
2022/06/22 08:07:58;;;;;;;;;;;;;;;;;;5047955;28;19936;-80
2022/06/22 08:10:29;;;;;;;;;;;;;;;;;;5045534;28;19989;-77
2022/06/22 08:12:59;;;;;;;;;;;;;;;;;;5033897;28;19936;-76
2022/06/22 08:15:27;;;;;;;;;;;;;;;;;;5032601;28;20027;-76
2022/06/22 08:17:54;;;;;;;;;;;;;;;;;;5033293;28;20454;-77
2022/06/22 08:20:24;;;;;;;;;;;;;;;;;;5032692;28;19961;-77
2022/06/22 08:22:50;;;;;;;;;;;;;;;;;;5032539;28;19929;-77
2022/06/22 08:25:19;;;;;;;;;;;;;;;;;;5031356;28;19932;-76
2022/06/22 08:27:47;;;;;;;;;;;;;;;;;;5032468;28;20474;-77
2022/06/22 08:30:15;;;;;;;;;;;;;;;;;;5031593;28;20044;-76
2022/06/22 08:32:44;;;;;;;;;;;;;;;;;;5031836;28;19971;-76
2022/06/22 08:35:16;;;;;;;;;;;;;;;;;;5031442;28;19997;-76
2022/06/22 08:37:44;;;;;;;;;;;;;;;;;;5031702;28;19956;-77
2022/06/22 08:40:15;;;;;;;;;;;;;;;;;;5031901;28;20008;-74
2022/06/22 08:42:45;;;;;;;;;;;;;;;;;;5032193;28;19929;-74
2022/06/22 08:45:19;;;;;;;;;;;;;;;;;;5032171;28;20040;-75
2022/06/22 08:47:57;;;;;;;;;;;;;;;;;;5035886;28;20020;-76
2022/06/22 08:50:34;;;;;;;;;;;;;;;;;;5035010;28;20403;-76
2022/06/22 08:53:08;;;;;;;;;;;;;;;;;;5035518;28;19925;-76
2022/06/22 08:55:51;;;;;;;;;;;;;;;;;;5036842;28;19968;-75
2022/06/22 08:58:26;;;;;;;;;;;;;;;;;;5036987;28;19952;-75
2022/06/22 09:00:57;;;;;;;;;;;;;;;;;;5039823;28;20460;-76
2022/06/22 09:03:32;;;;;;;;;;;;;;;;;;5034340;28;19967;-76
2022/06/22 09:06:20;;;;;;;;;;;;;;;;;;5034600;28;20057;-77
2022/06/22 09:09:05;;;;;;;;;;;;;;;;;;5034630;28;20039;-78
2022/06/22 09:11:33;;;;;;;;;;;;;;;;;;5033730;28;20447;-77
2022/06/22 09:14:08;;;;;;;;;;;;;;;;;;5034016;28;19925;-77
2022/06/22 09:16:43;;;;;;;;;;;;;;;;;;5033834;28;20675;-77
2022/06/22 09:19:22;;;;;;;;;;;;;;;;;;5034337;28;19925;-77
2022/06/22 09:21:58;;;;;;;;;;;;;;;;;;5034096;28;19972;-77
2022/06/22 09:24:35;;;;;;;;;;;;;;;;;;5034389;28;20366;-76
2022/06/22 09:27:08;;;;;;;;;;;;;;;;;;5035096;28;19975;-77
2022/06/22 09:29:40;;;;;;;;;;;;;;;;;;5033835;28;20031;-76
2022/06/22 09:32:21;;;;;;;;;;;;;;;;;;5034319;28;20354;-76
2022/06/22 09:34:55;;;;;;;;;;;;;;;;;;5034147;28;19965;-76
2022/06/22 09:37:37;;;;;;;;;;;;;;;;;;5034108;28;19925;-76
2022/06/22 09:40:18;;;;;;;;;;;;;;;;;;5033444;28;20420;-76
2022/06/22 09:42:54;;;;;;;;;;;;;;;;;;5034086;28;20020;-76
2022/06/22 09:45:27;;;;;;;;;;;;;;;;;;5033147;28;19972;-76
2022/06/22 09:48:02;;;;;;;;;;;;;;;;;;5033322;28;20451;-77
2022/06/22 09:50:42;;;;;;;;;;;;;;;;;;5033379;28;19925;-77
2022/06/22 09:53:29;;;;;;;;;;;;;;;;;;5033827;28;19973;-77
2022/06/22 09:56:22;;;;;;;;;;;;;;;;;;5000611;28;20421;-77
2022/06/22 09:59:11;;;;;;;;;;;;;;;;;;5034030;28;19933;-77
2022/06/22 10:01:44;;;;;;;;;;;;;;;;;;5034868;28;20024;-76
2022/06/22 10:04:26;;;;;;;;;;;;;;;;;;5034270;28;20454;-76
2022/06/22 10:07:04;;;;;;;;;;;;;;;;;;5034095;28;19931;-76
2022/06/22 10:09:35;;;;;;;;;;;;;;;;;;5033236;28;19957;-77
2022/06/22 10:12:09;;;;;;;;;;;;;;;;;;5033066;28;20012;-76
2022/06/22 10:14:44;;;;;;;;;;;;;;;;;;5032785;28;19929;-77
2022/06/22 10:17:22;;;;;;;;;;;;;;;;;;5033467;28;20023;-80
2022/06/22 10:19:56;;;;;;;;;;;;;;;;;;5033068;28;20360;-78
2022/06/22 10:22:32;;;;;;;;;;;;;;;;;;5033631;28;20261;-76
2022/06/22 10:25:13;;;;;;;;;;;;;;;;;;5034965;28;19935;-76
2022/06/22 10:27:48;;;;;;;;;;;;;;;;;;5034399;28;19979;-75
2022/06/22 10:30:20;;;;;;;;;;;;;;;;;;5033486;28;20016;-77
2022/06/22 10:33:01;;;;;;;;;;;;;;;;;;5033329;28;19928;-77
2022/06/22 10:35:38;;;;;;;;;;;;;;;;;;5015797;28;19980;-77
2022/06/22 10:38:25;;;;;;;;;;;;;;;;;;5033939;28;19989;-77
2022/06/22 10:46:46;;;;;;;;;;;;;;;;;;5033290;28;19932;-78
2022/06/22 10:49:26;;;;;;;;;;;;;;;;;;5033282;28;20464;-78
2022/06/22 10:52:20;;;;;;;;;;;;;;;;;;5033937;28;19969;-76
2022/06/22 10:55:12;;;;;;;;;;;;;;;;;;5033460;28;20012;-76
2022/06/22 10:57:50;;;;;;;;;;;;;;;;;;5032211;28;20431;-77
2022/06/22 11:00:20;;;;;;;;;;;;;;;;;;5031755;28;20008;-77
2022/06/22 11:03:02;;;;;;;;;;;;;;;;;;5032050;28;19925;-77
2022/06/22 11:05:40;;;;;;;;;;;;;;;;;;5031724;28;19929;-77
2022/06/22 11:08:13;;;;;;;;;;;;;;;;;;5032580;28;20016;-77
2022/06/22 11:10:42;;;;;;;;;;;;;;;;;;5032383;28;19924;-76
2022/06/22 11:13:17;;;;;;;;;;;;;;;;;;5031863;28;20562;-76
2022/06/22 11:16:02;;;;;;;;;;;;;;;;;;5031899;28;20009;-76
2022/06/22 11:18:48;;;;;;;;;;;;;;;;;;5018996;28;19971;-77
2022/06/22 11:21:20;;;;;;;;;;;;;;;;;;5032043;28;19991;-76
2022/06/22 11:23:55;;;;;;;;;;;;;;;;;;5034902;28;20372;-78
2022/06/22 11:32:22;;;;;;;;;;;;;;;;;;5031664;28;19975;-76
2022/06/22 11:35:04;;;;;;;;;;;;;;;;;;5031251;28;19929;-76
2022/06/22 11:37:43;;;;;;;;;;;;;;;;;;5031310;28;19925;-76
2022/06/22 11:40:23;;;;;;;;;;;;;;;;;;5030929;28;19933;-76
2022/06/22 11:42:54;;;;;;;;;;;;;;;;;;5031090;28;20444;-76
2022/06/22 11:48:46;;;;;;;;;;;;;;;;;;5006259;28;19929;-76
2022/06/22 11:51:23;;;;;;;;;;;;;;;;;;5030903;28;20387;-76
2022/06/22 11:54:02;;;;;;;;;;;;;;;;;;5030581;28;20008;-75
2022/06/22 11:56:37;;;;;;;;;;;;;;;;;;5030778;28;19929;-77
2022/06/22 11:59:09;;;;;;;;;;;;;;;;;;5030281;28;19972;-76
2022/06/22 12:01:55;;;;;;;;;;;;;;;;;;5030913;28;20019;-78
2022/06/22 12:04:36;;;;;;;;;;;;;;;;;;5030986;28;20012;-77
2022/06/22 12:07:21;;;;;;;;;;;;;;;;;;5031117;28;20004;-76
2022/06/22 12:10:02;;;;;;;;;;;;;;;;;;5030846;28;19996;-77
2022/06/22 12:12:51;;;;;;;;;;;;;;;;;;5027695;28;19929;-76
2022/06/22 12:15:23;;;;;;;;;;;;;;;;;;5031853;28;19929;-77
2022/06/22 12:17:55;;;;;;;;;;;;;;;;;;5030869;28;19932;-76
2022/06/22 12:20:27;;;;;;;;;;;;;;;;;;5029506;28;20451;-77
2022/06/22 12:22:56;;;;;;;;;;;;;;;;;;5030714;28;19925;-76
2022/06/22 12:28:08;;;;;;;;;;;;;;;;;;5005397;28;20296;-76
2022/06/22 12:30:40;;;;;;;;;;;;;;;;;;5010279;28;20302;-76
2022/06/22 12:33:11;;;;;;;;;;;;;;;;;;5010780;28;20019;-76
2022/06/22 12:35:40;;;;;;;;;;;;;;;;;;5011281;28;19932;-78
2022/06/22 12:38:15;;;;;;;;;;;;;;;;;;5012987;28;19968;-78
2022/06/22 12:40:46;;;;;;;;;;;;;;;;;;5010582;28;19926;-77
2022/06/22 12:43:27;;;;;;;;;;;;;;;;;;5011401;28;20435;-77
2022/06/22 12:45:55;;;;;;;;;;;;;;;;;;5010216;28;19926;-76
2022/06/22 12:48:40;;;;;;;;;;;;;;;;;;5010543;28;20011;-76
2022/06/22 12:51:09;;;;;;;;;;;;;;;;;;5010574;28;19964;-76
2022/06/22 12:53:38;;;;;;;;;;;;;;;;;;5010252;28;20625;-76
2022/06/22 12:56:07;;;;;;;;;;;;;;;;;;5010486;28;19925;-76
2022/06/22 12:58:37;;;;;;;;;;;;;;;;;;5012011;28;19925;-76
2022/06/22 13:01:05;;;;;;;;;;;;;;;;;;5030304;28;19926;-76
2022/06/22 13:03:34;;;;;;;;;;;;;;;;;;5030503;28;19929;-76
2022/06/22 13:06:01;;;;;;;;;;;;;;;;;;5030942;28;19925;-76
2022/06/22 13:08:28;;;;;;;;;;;;;;;;;;5030624;28;19929;-76
2022/06/22 13:10:58;;;;;;;;;;;;;;;;;;5029819;28;19975;-75
2022/06/22 13:13:26;;;;;;;;;;;;;;;;;;5030113;28;20036;-75
2022/06/22 13:15:57;;;;;;;;;;;;;;;;;;5029927;28;20388;-75
2022/06/22 13:18:26;;;;;;;;;;;;;;;;;;5030494;28;19968;-75
2022/06/22 13:20:56;;;;;;;;;;;;;;;;;;5030023;28;20019;-76
2022/06/22 13:23:27;;;;;;;;;;;;;;;;;;5030006;28;20019;-75
2022/06/22 13:25:57;;;;;;;;;;;;;;;;;;5029837;28;19932;-75
2022/06/22 13:28:27;;;;;;;;;;;;;;;;;;5030647;28;19929;-75
2022/06/22 13:30:57;;;;;;;;;;;;;;;;;;5030510;28;20619;-75
2022/06/22 13:33:26;;;;;;;;;;;;;;;;;;5034120;28;19925;-76
2022/06/22 13:35:55;;;;;;;;;;;;;;;;;;5033866;28;19925;-76
2022/06/22 13:38:26;;;;;;;;;;;;;;;;;;5028500;28;19996;-75
2022/06/22 13:40:56;;;;;;;;;;;;;;;;;;5012633;28;19980;-76
2022/06/22 13:43:37;;;;;;;;;;;;;;;;;;5013072;28;19976;-75
2022/06/22 13:46:13;;;;;;;;;;;;;;;;;;5013632;28;20012;-76
2022/06/22 13:48:44;;;;;;;;;;;;;;;;;;5013549;28;19929;-75
2022/06/22 13:51:40;;;;;;;;;;;;;;;;;;5013366;28;19949;-76
2022/06/22 13:54:31;;;;;;;;;;;;;;;;;;5005355;28;20024;-75
2022/06/22 13:57:02;;;;;;;;;;;;;;;;;;5014308;28;19929;-76
2022/06/22 13:59:32;;;;;;;;;;;;;;;;;;5023681;28;20016;-77
2022/06/22 14:02:07;;;;;;;;;;;;;;;;;;5034471;28;20473;-75
2022/06/22 14:04:36;;;;;;;;;;;;;;;;;;5033636;28;19926;-75
2022/06/22 14:07:05;;;;;;;;;;;;;;;;;;5033374;28;19925;-76
2022/06/22 14:09:35;;;;;;;;;;;;;;;;;;5033000;28;19951;-76
2022/06/22 14:12:04;;;;;;;;;;;;;;;;;;5032707;28;19979;-76
2022/06/22 14:14:32;;;;;;;;;;;;;;;;;;5032887;28;20463;-75
2022/06/22 14:17:02;;;;;;;;;;;;;;;;;;5033388;28;20384;-75
2022/06/22 14:19:33;;;;;;;;;;;;;;;;;;4993904;28;19936;-76
2022/06/22 14:22:00;;;;;;;;;;;;;;;;;;4993980;28;20393;-75
2022/06/22 14:24:30;;;;;;;;;;;;;;;;;;4993771;28;19926;-76
2022/06/22 14:27:06;;;;;;;;;;;;;;;;;;4993979;28;19973;-76
2022/06/22 14:29:39;;;;;;;;;;;;;;;;;;4994686;28;19969;-75
2022/06/22 14:32:13;;;;;;;;;;;;;;;;;;4993540;28;19936;-75
2022/06/22 14:34:49;;;;;;;;;;;;;;;;;;4993729;28;20380;-75
2022/06/22 14:37:17;;;;;;;;;;;;;;;;;;4997248;28;20016;-75
2022/06/22 14:39:46;;;;;;;;;;;;;;;;;;5031212;28;20008;-75
2022/06/22 14:42:15;;;;;;;;;;;;;;;;;;5032466;28;20433;-75
2022/06/22 14:44:45;;;;;;;;;;;;;;;;;;5026391;28;20392;-75
2022/06/22 14:47:18;;;;;;;;;;;;;;;;;;5011630;28;20451;-75
2022/06/22 14:49:50;;;;;;;;;;;;;;;;;;5011575;28;19979;-75
2022/06/22 14:52:19;;;;;;;;;;;;;;;;;;5012438;28;19984;-75
2022/06/22 14:54:51;;;;;;;;;;;;;;;;;;5013119;28;19972;-75
2022/06/22 14:57:21;;;;;;;;;;;;;;;;;;5012821;28;20020;-75
2022/06/22 14:59:52;;;;;;;;;;;;;;;;;;5011489;28;19930;-75
2022/06/22 15:02:24;;;;;;;;;;;;;;;;;;5012549;28;19987;-75
2022/06/22 15:04:57;;;;;;;;;;;;;;;;;;5012258;28;20028;-75
2022/06/22 15:07:27;;;;;;;;;;;;;;;;;;5011975;28;19931;-75
2022/06/22 15:09:56;;;;;;;;;;;;;;;;;;5011793;28;19980;-75
2022/06/22 15:15:19;;;;;;;;;;;;;;;;;;5012011;28;19931;-76
2022/06/22 15:17:48;;;;;;;;;;;;;;;;;;5011976;28;19925;-76
2022/06/22 15:20:20;;;;;;;;;;;;;;;;;;5011370;28;19929;-76
2022/06/22 15:22:51;;;;;;;;;;;;;;;;;;5011843;28;19999;-76
2022/06/22 15:25:22;;;;;;;;;;;;;;;;;;5011956;28;19925;-76
2022/06/22 15:27:50;;;;;;;;;;;;;;;;;;5011632;28;20020;-76
2022/06/22 15:30:18;;;;;;;;;;;;;;;;;;5011516;28;19936;-77
2022/06/22 15:32:48;;;;;;;;;;;;;;;;;;5012271;28;19956;-76
2022/06/22 15:35:20;;;;;;;;;;;;;;;;;;5012506;28;19926;-76
2022/06/22 15:37:54;;;;;;;;;;;;;;;;;;5011871;28;20273;-77
2022/06/22 15:40:27;;;;;;;;;;;;;;;;;;5011507;28;20300;-76
2022/06/22 15:43:06;;;;;;;;;;;;;;;;;;5011752;28;19973;-77
2022/06/22 15:45:37;;;;;;;;;;;;;;;;;;5011840;28;19925;-77
2022/06/22 15:48:06;;;;;;;;;;;;;;;;;;5011874;28;19973;-76
2022/06/22 15:50:38;;;;;;;;;;;;;;;;;;5011434;28;20016;-74
2022/06/22 15:53:06;;;;;;;;;;;;;;;;;;5011951;28;19925;-76
2022/06/22 15:55:35;;;;;;;;;;;;;;;;;;5010787;28;19984;-76
2022/06/22 15:58:05;;;;;;;;;;;;;;;;;;5011685;28;19947;-76
2022/06/22 16:00:34;;;;;;;;;;;;;;;;;;5028389;28;20019;-76
2022/06/22 16:03:07;;;;;;;;;;;;;;;;;;5020152;28;20277;-76
2022/06/22 16:05:40;;;;;;;;;;;;;;;;;;5031195;28;20011;-76
2022/06/22 16:08:10;;;;;;;;;;;;;;;;;;5031499;28;19971;-74
2022/06/22 16:10:41;;;;;;;;;;;;;;;;;;5031383;28;19925;-76
2022/06/22 16:13:28;;;;;;;;;;;;;;;;;;5031804;28;20454;-76
2022/06/22 16:15:59;;;;;;;;;;;;;;;;;;5031452;28;19932;-76
2022/06/22 16:18:28;;;;;;;;;;;;;;;;;;5014239;28;20008;-76
2022/06/22 16:21:00;;;;;;;;;;;;;;;;;;5011143;28;20521;-75
2022/06/22 16:23:32;;;;;;;;;;;;;;;;;;5011717;28;19961;-76
2022/06/22 16:26:01;;;;;;;;;;;;;;;;;;5011965;28;19933;-76
2022/06/22 16:28:28;;;;;;;;;;;;;;;;;;5011034;28;20538;-75
2022/06/22 16:30:59;;;;;;;;;;;;;;;;;;5010832;28;20016;-75
2022/06/22 16:33:29;;;;;;;;;;;;;;;;;;5011475;28;20008;-75
2022/06/22 16:35:58;;;;;;;;;;;;;;;;;;5011123;28;19929;-76
2022/06/22 16:38:28;;;;;;;;;;;;;;;;;;5010958;28;20012;-75
2022/06/22 16:40:56;;;;;;;;;;;;;;;;;;5010912;28;20024;-76
2022/06/22 16:43:26;;;;;;;;;;;;;;;;;;5011777;28;19925;-76
2022/06/22 16:45:56;;;;;;;;;;;;;;;;;;5010798;28;20008;-75
2022/06/22 16:48:25;;;;;;;;;;;;;;;;;;5010941;28;19933;-76
2022/06/22 16:51:00;;;;;;;;;;;;;;;;;;5010964;28;19932;-76
2022/06/22 16:53:33;;;;;;;;;;;;;;;;;;5010950;28;19925;-75
2022/06/22 16:56:01;;;;;;;;;;;;;;;;;;5010418;28;20347;-77
2022/06/22 16:58:30;;;;;;;;;;;;;;;;;;5010940;28;20376;-75
2022/06/22 17:00:59;;;;;;;;;;;;;;;;;;5030157;28;19983;-75
2022/06/22 17:03:29;;;;;;;;;;;;;;;;;;5030162;28;20384;-75
2022/06/22 17:06:00;;;;;;;;;;;;;;;;;;5030117;28;19972;-75
2022/06/22 17:08:30;;;;;;;;;;;;;;;;;;5033794;28;20391;-76
2022/06/22 17:10:58;;;;;;;;;;;;;;;;;;5033927;28;20008;-76
2022/06/22 17:13:32;;;;;;;;;;;;;;;;;;5034239;28;19925;-76
2022/06/22 17:16:02;;;;;;;;;;;;;;;;;;5034645;28;20003;-76
2022/06/22 17:18:31;;;;;;;;;;;;;;;;;;5034684;28;19976;-75
2022/06/22 17:21:02;;;;;;;;;;;;;;;;;;5033955;28;20383;-76
2022/06/22 17:23:33;;;;;;;;;;;;;;;;;;5033766;28;20017;-76
2022/06/22 17:26:03;;;;;;;;;;;;;;;;;;5033773;28;20012;-76
2022/06/22 17:28:33;;;;;;;;;;;;;;;;;;5034199;28;20004;-76
2022/06/22 17:31:03;;;;;;;;;;;;;;;;;;5033187;28;19972;-76
2022/06/22 17:33:33;;;;;;;;;;;;;;;;;;5033869;28;19925;-75
2022/06/22 17:36:06;;;;;;;;;;;;;;;;;;5033637;28;20037;-76
2022/06/22 17:38:41;;;;;;;;;;;;;;;;;;5033776;28;20024;-75
2022/06/22 17:41:13;;;;;;;;;;;;;;;;;;5033401;28;19925;-75
2022/06/22 17:43:43;;;;;;;;;;;;;;;;;;5034076;28;19953;-76